sensor_id;sensor_type;location;lat;lon;timestamp;pressure;altitude;pressure_sealevel;temperature;humidity
74163;BME280;62515;52.758;5.076;2023-05-24T00:00:16;102624.91;;;7.34;100.00
74163;BME280;62515;52.758;5.076;2023-05-24T00:02:43;102621.41;;;7.33;100.00
74163;BME280;62515;52.758;5.076;2023-05-24T00:05:10;102620.53;;;7.33;100.00
74163;BME280;62515;52.758;5.076;2023-05-24T00:07:37;102604.69;;;7.31;100.00
74163;BME280;62515;52.758;5.076;2023-05-24T00:10:06;102608.06;;;7.36;100.00
74163;BME280;62515;52.758;5.076;2023-05-24T00:12:33;102617.78;;;7.36;100.00
74163;BME280;62515;52.758;5.076;2023-05-24T00:15:00;102622.09;;;7.38;100.00
74163;BME280;62515;52.758;5.076;2023-05-24T00:17:26;102618.56;;;7.40;100.00
74163;BME280;62515;52.758;5.076;2023-05-24T00:19:53;102617.59;;;7.42;100.00
74163;BME280;62515;52.758;5.076;2023-05-24T00:22:20;102605.44;;;7.35;100.00
74163;BME280;62515;52.758;5.076;2023-05-24T00:24:47;102612.28;;;7.42;100.00
74163;BME280;62515;52.758;5.076;2023-05-24T00:27:15;102608.75;;;7.43;100.00
74163;BME280;62515;52.758;5.076;2023-05-24T00:29:42;102602.56;;;7.43;100.00
74163;BME280;62515;52.758;5.076;2023-05-24T00:32:09;102611.31;;;7.45;100.00
74163;BME280;62515;52.758;5.076;2023-05-24T00:34:36;102608.84;;;7.40;100.00
74163;BME280;62515;52.758;5.076;2023-05-24T00:37:03;102604.69;;;7.31;100.00
74163;BME280;62515;52.758;5.076;2023-05-24T00:39:30;102609.22;;;7.28;100.00
74163;BME280;62515;52.758;5.076;2023-05-24T00:41:57;102603.53;;;7.11;100.00
74163;BME280;62515;52.758;5.076;2023-05-24T00:44:25;102600.81;;;7.12;100.00
74163;BME280;62515;52.758;5.076;2023-05-24T00:46:52;102596.69;;;7.04;100.00
74163;BME280;62515;52.758;5.076;2023-05-24T00:49:20;102600.47;;;6.95;100.00
74163;BME280;62515;52.758;5.076;2023-05-24T00:51:47;102591.78;;;6.90;100.00
74163;BME280;62515;52.758;5.076;2023-05-24T00:54:15;102596.94;;;6.95;100.00
74163;BME280;62515;52.758;5.076;2023-05-24T00:56:42;102586.66;;;6.84;100.00
74163;BME280;62515;52.758;5.076;2023-05-24T00:59:09;102576.22;;;6.79;100.00
74163;BME280;62515;52.758;5.076;2023-05-24T01:01:38;102591.94;;;6.86;100.00
74163;BME280;62515;52.758;5.076;2023-05-24T01:04:05;102592.00;;;6.82;100.00
74163;BME280;62515;52.758;5.076;2023-05-24T01:06:37;102586.81;;;6.79;100.00
74163;BME280;62515;52.758;5.076;2023-05-24T01:09:21;102585.84;;;6.82;100.00
74163;BME280;62515;52.758;5.076;2023-05-24T01:12:01;102583.31;;;6.77;100.00
74163;BME280;62515;52.758;5.076;2023-05-24T01:14:38;102577.53;;;6.63;100.00
74163;BME280;62515;52.758;5.076;2023-05-24T01:17:13;102594.81;;;6.76;100.00
74163;BME280;62515;52.758;5.076;2023-05-24T01:19:51;102592.13;;;6.78;100.00
74163;BME280;62515;52.758;5.076;2023-05-24T01:22:40;102594.66;;;6.82;100.00
74163;BME280;62515;52.758;5.076;2023-05-24T01:25:26;102584.00;;;6.86;100.00
74163;BME280;62515;52.758;5.076;2023-05-24T01:27:55;102591.16;;;6.80;100.00
74163;BME280;62515;52.758;5.076;2023-05-24T01:30:23;102593.63;;;6.87;100.00
74163;BME280;62515;52.758;5.076;2023-05-24T01:32:51;102599.09;;;6.80;100.00
74163;BME280;62515;52.758;5.076;2023-05-24T01:35:18;102597.34;;;6.81;100.00
74163;BME280;62515;52.758;5.076;2023-05-24T01:37:44;102584.88;;;6.84;100.00
74163;BME280;62515;52.758;5.076;2023-05-24T01:40:12;102592.75;;;6.88;100.00
74163;BME280;62515;52.758;5.076;2023-05-24T01:42:43;102594.56;;;6.86;100.00
74163;BME280;62515;52.758;5.076;2023-05-24T01:45:15;102588.25;;;6.90;100.00
74163;BME280;62515;52.758;5.076;2023-05-24T01:47:55;102588.22;;;6.91;100.00
74163;BME280;62515;52.758;5.076;2023-05-24T01:50:25;102582.81;;;6.96;100.00
74163;BME280;62515;52.758;5.076;2023-05-24T01:52:54;102590.75;;;6.96;100.00
74163;BME280;62515;52.758;5.076;2023-05-24T01:55:26;102596.06;;;6.96;100.00
74163;BME280;62515;52.758;5.076;2023-05-24T01:57:57;102584.44;;;7.00;100.00
74163;BME280;62515;52.758;5.076;2023-05-24T02:00:26;102579.91;;;7.05;100.00
74163;BME280;62515;52.758;5.076;2023-05-24T02:02:53;102576.50;;;7.00;100.00
74163;BME280;62515;52.758;5.076;2023-05-24T02:05:20;102581.34;;;7.15;100.00
74163;BME280;62515;52.758;5.076;2023-05-24T02:07:47;102581.06;;;7.24;100.00
74163;BME280;62515;52.758;5.076;2023-05-24T02:10:14;102577.59;;;7.22;100.00
74163;BME280;62515;52.758;5.076;2023-05-24T02:12:41;102575.88;;;7.21;100.00
74163;BME280;62515;52.758;5.076;2023-05-24T02:15:08;102569.94;;;7.13;100.00
74163;BME280;62515;52.758;5.076;2023-05-24T02:17:37;102559.53;;;7.07;100.00
74163;BME280;62515;52.758;5.076;2023-05-24T02:20:04;102571.69;;;7.12;100.00
74163;BME280;62515;52.758;5.076;2023-05-24T02:22:31;102570.78;;;7.15;100.00
74163;BME280;62515;52.758;5.076;2023-05-24T02:24:58;102573.41;;;7.15;100.00
74163;BME280;62515;52.758;5.076;2023-05-24T02:27:25;102568.22;;;7.12;100.00
74163;BME280;62515;52.758;5.076;2023-05-24T02:29:52;102564.72;;;7.10;100.00
74163;BME280;62515;52.758;5.076;2023-05-24T02:32:18;102574.41;;;7.11;100.00
74163;BME280;62515;52.758;5.076;2023-05-24T02:34:47;102575.47;;;7.05;100.00
74163;BME280;62515;52.758;5.076;2023-05-24T02:37:13;102578.16;;;7.04;100.00
74163;BME280;62515;52.758;5.076;2023-05-24T02:39:40;102579.06;;;7.03;100.00
74163;BME280;62515;52.758;5.076;2023-05-24T02:42:07;102577.38;;;7.00;100.00
74163;BME280;62515;52.758;5.076;2023-05-24T02:44:34;102575.63;;;6.99;100.00
74163;BME280;62515;52.758;5.076;2023-05-24T02:47:01;102564.63;;;6.83;100.00
74163;BME280;62515;52.758;5.076;2023-05-24T02:49:28;102578.69;;;6.86;100.00
74163;BME280;62515;52.758;5.076;2023-05-24T02:51:56;102568.22;;;6.81;100.00
74163;BME280;62515;52.758;5.076;2023-05-24T02:54:23;102576.34;;;6.75;100.00
74163;BME280;62515;52.758;5.076;2023-05-24T02:56:50;102570.25;;;6.71;100.00
74163;BME280;62515;52.758;5.076;2023-05-24T02:59:17;102569.41;;;6.71;100.00
74163;BME280;62515;52.758;5.076;2023-05-24T03:01:44;102559.69;;;6.71;100.00
74163;BME280;62515;52.758;5.076;2023-05-24T03:04:11;102562.25;;;6.74;100.00
74163;BME280;62515;52.758;5.076;2023-05-24T03:06:38;102549.91;;;6.73;100.00
74163;BME280;62515;52.758;5.076;2023-05-24T03:09:06;102551.56;;;6.77;100.00
74163;BME280;62515;52.758;5.076;2023-05-24T03:11:33;102555.00;;;6.81;100.00
74163;BME280;62515;52.758;5.076;2023-05-24T03:14:00;102554.91;;;6.84;100.00
74163;BME280;62515;52.758;5.076;2023-05-24T03:16:27;102546.16;;;6.82;100.00
74163;BME280;62515;52.758;5.076;2023-05-24T03:18:54;102547.97;;;6.80;100.00
74163;BME280;62515;52.758;5.076;2023-05-24T03:21:21;102553.16;;;6.83;100.00
74163;BME280;62515;52.758;5.076;2023-05-24T03:23:48;102551.53;;;6.79;100.00
74163;BME280;62515;52.758;5.076;2023-05-24T03:26:16;102554.19;;;6.79;100.00
74163;BME280;62515;52.758;5.076;2023-05-24T03:28:43;102558.63;;;6.77;100.00
74163;BME280;62515;52.758;5.076;2023-05-24T03:31:11;102558.69;;;6.75;100.00
74163;BME280;62515;52.758;5.076;2023-05-24T03:33:38;102556.84;;;6.79;100.00
74163;BME280;62515;52.758;5.076;2023-05-24T03:36:05;102554.09;;;6.82;100.00
74163;BME280;62515;52.758;5.076;2023-05-24T03:38:32;102560.16;;;6.86;100.00
74163;BME280;62515;52.758;5.076;2023-05-24T03:40:59;102555.69;;;6.88;100.00
74163;BME280;62515;52.758;5.076;2023-05-24T03:43:28;102534.00;;;6.75;100.00
74163;BME280;62515;52.758;5.076;2023-05-24T03:45:59;102545.66;;;6.99;100.00
74163;BME280;62515;52.758;5.076;2023-05-24T03:48:26;102554.03;;;7.13;100.00
74163;BME280;62515;52.758;5.076;2023-05-24T03:50:53;102558.38;;;7.15;100.00
74163;BME280;62515;52.758;5.076;2023-05-24T03:53:20;102554.88;;;7.15;100.00
74163;BME280;62515;52.758;5.076;2023-05-24T03:55:48;102566.28;;;7.17;100.00
74163;BME280;62515;52.758;5.076;2023-05-24T03:58:15;102561.03;;;7.15;100.00
74163;BME280;62515;52.758;5.076;2023-05-24T04:00:44;102552.03;;;7.21;100.00
74163;BME280;62515;52.758;5.076;2023-05-24T04:03:12;102562.47;;;7.25;100.00
74163;BME280;62515;52.758;5.076;2023-05-24T04:05:39;102541.34;;;7.24;100.00
74163;BME280;62515;52.758;5.076;2023-05-24T04:08:06;102557.94;;;7.30;100.00
74163;BME280;62515;52.758;5.076;2023-05-24T04:10:35;102565.91;;;7.29;100.00
74163;BME280;62515;52.758;5.076;2023-05-24T04:13:02;102564.97;;;7.31;100.00
74163;BME280;62515;52.758;5.076;2023-05-24T04:15:34;102556.00;;;7.35;100.00
74163;BME280;62515;52.758;5.076;2023-05-24T04:18:04;102562.13;;;7.38;100.00
74163;BME280;62515;52.758;5.076;2023-05-24T04:20:33;102561.06;;;7.43;100.00
74163;BME280;62515;52.758;5.076;2023-05-24T04:23:00;102566.03;;;7.54;100.00
74163;BME280;62515;52.758;5.076;2023-05-24T04:25:27;102560.66;;;7.55;100.00
74163;BME280;62515;52.758;5.076;2023-05-24T04:27:54;102559.75;;;7.56;100.00
74163;BME280;62515;52.758;5.076;2023-05-24T04:30:22;102562.41;;;7.56;100.00
74163;BME280;62515;52.758;5.076;2023-05-24T04:32:49;102546.41;;;7.59;100.00
74163;BME280;62515;52.758;5.076;2023-05-24T04:35:17;102553.25;;;7.66;100.00
74163;BME280;62515;52.758;5.076;2023-05-24T04:37:44;102552.81;;;7.80;100.00
74163;BME280;62515;52.758;5.076;2023-05-24T04:40:11;102542.13;;;7.81;100.00
74163;BME280;62515;52.758;5.076;2023-05-24T04:42:38;102549.44;;;8.01;100.00
74163;BME280;62515;52.758;5.076;2023-05-24T04:45:05;102548.41;;;8.05;100.00
74163;BME280;62515;52.758;5.076;2023-05-24T04:47:32;102538.41;;;8.13;100.00
74163;BME280;62515;52.758;5.076;2023-05-24T04:50:00;102552.09;;;8.26;100.00
74163;BME280;62515;52.758;5.076;2023-05-24T04:52:28;102550.84;;;8.37;100.00
74163;BME280;62515;52.758;5.076;2023-05-24T04:54:55;102556.59;;;8.50;100.00
74163;BME280;62515;52.758;5.076;2023-05-24T04:57:22;102552.72;;;8.59;100.00
74163;BME280;62515;52.758;5.076;2023-05-24T04:59:48;102558.75;;;8.64;100.00
74163;BME280;62515;52.758;5.076;2023-05-24T05:02:15;102555.78;;;8.71;100.00
74163;BME280;62515;52.758;5.076;2023-05-24T05:04:42;102554.53;;;8.81;100.00
74163;BME280;62515;52.758;5.076;2023-05-24T05:07:09;102537.03;;;8.77;100.00
74163;BME280;62515;52.758;5.076;2023-05-24T05:09:37;102553.88;;;9.00;100.00
74163;BME280;62515;52.758;5.076;2023-05-24T05:12:04;102545.59;;;9.07;100.00
74163;BME280;62515;52.758;5.076;2023-05-24T05:14:31;102561.84;;;9.23;100.00
74163;BME280;62515;52.758;5.076;2023-05-24T05:16:58;102558.94;;;9.29;100.00
74163;BME280;62515;52.758;5.076;2023-05-24T05:19:24;102563.28;;;9.30;100.00
74163;BME280;62515;52.758;5.076;2023-05-24T05:21:51;102566.53;;;9.38;100.00
74163;BME280;62515;52.758;5.076;2023-05-24T05:24:18;102563.72;;;9.42;100.00
74163;BME280;62515;52.758;5.076;2023-05-24T05:26:46;102562.22;;;9.57;100.00
74163;BME280;62515;52.758;5.076;2023-05-24T05:29:13;102565.31;;;9.68;100.00
74163;BME280;62515;52.758;5.076;2023-05-24T05:31:40;102573.22;;;9.91;100.00
74163;BME280;62515;52.758;5.076;2023-05-24T05:34:06;102564.44;;;9.89;100.00
74163;BME280;62515;52.758;5.076;2023-05-24T05:36:33;102569.22;;;10.02;100.00
74163;BME280;62515;52.758;5.076;2023-05-24T05:39:00;102571.72;;;10.06;100.00
74163;BME280;62515;52.758;5.076;2023-05-24T05:41:27;102570.66;;;10.10;100.00
74163;BME280;62515;52.758;5.076;2023-05-24T05:43:55;102572.19;;;10.17;100.00
74163;BME280;62515;52.758;5.076;2023-05-24T05:46:22;102570.25;;;10.21;100.00
74163;BME280;62515;52.758;5.076;2023-05-24T05:48:49;102560.22;;;10.27;100.00
74163;BME280;62515;52.758;5.076;2023-05-24T05:51:15;102565.53;;;10.27;100.00
74163;BME280;62515;52.758;5.076;2023-05-24T05:53:42;102575.69;;;10.38;100.00
74163;BME280;62515;52.758;5.076;2023-05-24T05:56:09;102577.94;;;10.47;100.00
74163;BME280;62515;52.758;5.076;2023-05-24T05:58:36;102576.56;;;10.59;100.00
74163;BME280;62515;52.758;5.076;2023-05-24T06:01:04;102581.34;;;10.71;100.00
74163;BME280;62515;52.758;5.076;2023-05-24T06:03:31;102577.47;;;10.78;100.00
74163;BME280;62515;52.758;5.076;2023-05-24T06:05:58;102581.38;;;10.89;100.00
74163;BME280;62515;52.758;5.076;2023-05-24T06:08:25;102586.31;;;10.98;100.00
74163;BME280;62515;52.758;5.076;2023-05-24T06:10:52;102578.66;;;11.10;100.00
74163;BME280;62515;52.758;5.076;2023-05-24T06:13:19;102568.59;;;11.16;100.00
74163;BME280;62515;52.758;5.076;2023-05-24T06:15:46;102578.19;;;11.20;100.00
74163;BME280;62515;52.758;5.076;2023-05-24T06:18:14;102572.66;;;11.25;100.00
74163;BME280;62515;52.758;5.076;2023-05-24T06:20:44;102573.78;;;11.38;100.00
74163;BME280;62515;52.758;5.076;2023-05-24T06:23:11;102564.69;;;11.42;100.00
74163;BME280;62515;52.758;5.076;2023-05-24T06:25:38;102564.41;;;11.48;100.00
74163;BME280;62515;52.758;5.076;2023-05-24T06:28:05;102546.66;;;11.66;100.00
74163;BME280;62515;52.758;5.076;2023-05-24T06:30:32;102558.97;;;11.68;100.00
74163;BME280;62515;52.758;5.076;2023-05-24T06:33:00;102560.13;;;11.81;100.00
74163;BME280;62515;52.758;5.076;2023-05-24T06:35:29;102550.53;;;11.77;100.00
74163;BME280;62515;52.758;5.076;2023-05-24T06:37:55;102561.50;;;11.90;100.00
74163;BME280;62515;52.758;5.076;2023-05-24T06:40:22;102563.28;;;12.06;100.00
74163;BME280;62515;52.758;5.076;2023-05-24T06:42:49;102571.97;;;12.29;100.00
74163;BME280;62515;52.758;5.076;2023-05-24T06:45:19;102570.69;;;12.36;100.00
74163;BME280;62515;52.758;5.076;2023-05-24T06:47:46;102563.31;;;12.41;100.00
74163;BME280;62515;52.758;5.076;2023-05-24T06:50:13;102575.78;;;12.23;100.00
74163;BME280;62515;52.758;5.076;2023-05-24T06:52:41;102576.47;;;12.10;100.00
74163;BME280;62515;52.758;5.076;2023-05-24T06:55:08;102558.41;;;11.97;100.00
74163;BME280;62515;52.758;5.076;2023-05-24T06:57:35;102573.00;;;11.90;100.00
74163;BME280;62515;52.758;5.076;2023-05-24T07:00:03;102569.19;;;12.13;100.00
74163;BME280;62515;52.758;5.076;2023-05-24T07:02:30;102575.25;;;11.99;100.00
74163;BME280;62515;52.758;5.076;2023-05-24T07:04:56;102583.72;;;12.25;100.00
74163;BME280;62515;52.758;5.076;2023-05-24T07:07:24;102582.13;;;12.55;100.00
74163;BME280;62515;52.758;5.076;2023-05-24T07:09:52;102576.56;;;12.59;100.00
74163;BME280;62515;52.758;5.076;2023-05-24T07:12:18;102578.34;;;12.76;100.00
74163;BME280;62515;52.758;5.076;2023-05-24T07:14:46;102564.44;;;13.02;100.00
74163;BME280;62515;52.758;5.076;2023-05-24T07:17:13;102574.09;;;13.38;100.00
74163;BME280;62515;52.758;5.076;2023-05-24T07:19:40;102576.81;;;13.21;100.00
74163;BME280;62515;52.758;5.076;2023-05-24T07:22:07;102573.72;;;13.13;100.00
74163;BME280;62515;52.758;5.076;2023-05-24T07:24:33;102588.13;;;13.10;100.00
74163;BME280;62515;52.758;5.076;2023-05-24T07:27:02;102569.78;;;13.20;100.00
74163;BME280;62515;52.758;5.076;2023-05-24T07:29:29;102559.84;;;13.22;100.00
74163;BME280;62515;52.758;5.076;2023-05-24T07:31:56;102567.69;;;13.87;100.00
74163;BME280;62515;52.758;5.076;2023-05-24T07:34:23;102565.03;;;14.61;100.00
74163;BME280;62515;52.758;5.076;2023-05-24T07:36:50;102569.25;;;15.50;100.00
74163;BME280;62515;52.758;5.076;2023-05-24T07:39:18;102565.09;;;15.58;100.00
74163;BME280;62515;52.758;5.076;2023-05-24T07:41:46;102569.56;;;15.72;100.00
74163;BME280;62515;52.758;5.076;2023-05-24T07:44:15;102578.38;;;16.40;100.00
74163;BME280;62515;52.758;5.076;2023-05-24T07:46:47;102574.03;;;15.86;100.00
74163;BME280;62515;52.758;5.076;2023-05-24T07:49:16;102574.22;;;15.56;100.00
74163;BME280;62515;52.758;5.076;2023-05-24T07:51:54;102581.50;;;14.55;100.00
74163;BME280;62515;52.758;5.076;2023-05-24T07:54:22;102572.81;;;15.50;100.00
74163;BME280;62515;52.758;5.076;2023-05-24T07:56:52;102582.97;;;15.31;100.00
74163;BME280;62515;52.758;5.076;2023-05-24T07:59:21;102573.06;;;15.32;100.00
74163;BME280;62515;52.758;5.076;2023-05-24T08:02:02;102579.19;;;14.49;100.00
74163;BME280;62515;52.758;5.076;2023-05-24T08:04:35;102575.38;;;14.23;100.00
74163;BME280;62515;52.758;5.076;2023-05-24T08:07:02;102585.28;;;13.91;100.00
74163;BME280;62515;52.758;5.076;2023-05-24T08:09:33;102580.38;;;15.15;100.00
74163;BME280;62515;52.758;5.076;2023-05-24T08:12:00;102582.25;;;15.42;100.00
74163;BME280;62515;52.758;5.076;2023-05-24T08:28:18;102591.53;;;16.18;100.00
74163;BME280;62515;52.758;5.076;2023-05-24T08:30:45;102596.09;;;16.43;100.00
74163;BME280;62515;52.758;5.076;2023-05-24T08:33:27;102598.47;;;15.40;100.00
74163;BME280;62515;52.758;5.076;2023-05-24T08:35:58;102606.03;;;15.19;100.00
74163;BME280;62515;52.758;5.076;2023-05-24T08:38:39;102597.59;;;14.83;100.00
74163;BME280;62515;52.758;5.076;2023-05-24T08:41:09;102598.75;;;14.93;100.00
74163;BME280;62515;52.758;5.076;2023-05-24T08:44:01;102602.03;;;15.27;100.00
74163;BME280;62515;52.758;5.076;2023-05-24T08:46:28;102604.13;;;15.07;100.00
74163;BME280;62515;52.758;5.076;2023-05-24T08:48:56;102601.22;;;15.39;100.00
74163;BME280;62515;52.758;5.076;2023-05-24T08:51:24;102597.09;;;15.61;100.00
74163;BME280;62515;52.758;5.076;2023-05-24T08:53:53;102602.06;;;14.40;100.00
74163;BME280;62515;52.758;5.076;2023-05-24T08:56:21;102590.72;;;14.93;100.00
74163;BME280;62515;52.758;5.076;2023-05-24T08:58:49;102598.09;;;15.04;100.00
74163;BME280;62515;52.758;5.076;2023-05-24T09:01:19;102595.91;;;15.25;100.00
74163;BME280;62515;52.758;5.076;2023-05-24T09:03:46;102602.59;;;15.17;100.00
74163;BME280;62515;52.758;5.076;2023-05-24T09:06:17;102605.06;;;15.35;100.00
74163;BME280;62515;52.758;5.076;2023-05-24T09:08:44;102595.78;;;14.84;100.00
74163;BME280;62515;52.758;5.076;2023-05-24T09:11:13;102593.78;;;16.11;100.00
74163;BME280;62515;52.758;5.076;2023-05-24T09:13:41;102590.91;;;17.53;100.00
74163;BME280;62515;52.758;5.076;2023-05-24T09:16:10;102589.31;;;18.46;100.00
74163;BME280;62515;52.758;5.076;2023-05-24T09:18:39;102592.38;;;18.76;100.00
74163;BME280;62515;52.758;5.076;2023-05-24T09:21:06;102572.84;;;20.04;100.00
74163;BME280;62515;52.758;5.076;2023-05-24T09:23:33;102593.31;;;21.01;100.00
74163;BME280;62515;52.758;5.076;2023-05-24T09:26:05;102583.19;;;20.52;100.00
74163;BME280;62515;52.758;5.076;2023-05-24T09:28:33;102590.88;;;19.39;100.00
74163;BME280;62515;52.758;5.076;2023-05-24T09:31:02;102586.84;;;19.22;100.00
74163;BME280;62515;52.758;5.076;2023-05-24T09:33:34;102586.97;;;19.31;100.00
74163;BME280;62515;52.758;5.076;2023-05-24T09:36:04;102559.78;;;18.09;100.00
74163;BME280;62515;52.758;5.076;2023-05-24T09:38:31;102599.41;;;18.55;100.00
74163;BME280;62515;52.758;5.076;2023-05-24T09:41:00;102592.97;;;17.86;100.00
74163;BME280;62515;52.758;5.076;2023-05-24T09:43:31;102607.75;;;18.52;100.00
74163;BME280;62515;52.758;5.076;2023-05-24T09:45:58;102599.69;;;20.28;100.00
74163;BME280;62515;52.758;5.076;2023-05-24T09:48:25;102593.81;;;20.12;100.00
74163;BME280;62515;52.758;5.076;2023-05-24T09:51:06;102598.28;;;17.39;100.00
74163;BME280;62515;52.758;5.076;2023-05-24T09:53:35;102604.69;;;18.56;100.00
74163;BME280;62515;52.758;5.076;2023-05-24T09:56:03;102599.59;;;18.75;100.00
74163;BME280;62515;52.758;5.076;2023-05-24T09:58:32;102597.59;;;17.60;100.00
74163;BME280;62515;52.758;5.076;2023-05-24T10:01:03;102599.38;;;17.23;100.00
74163;BME280;62515;52.758;5.076;2023-05-24T10:03:30;102607.78;;;18.04;100.00
74163;BME280;62515;52.758;5.076;2023-05-24T10:05:58;102603.38;;;17.67;100.00
74163;BME280;62515;52.758;5.076;2023-05-24T10:08:29;102593.94;;;18.33;100.00
74163;BME280;62515;52.758;5.076;2023-05-24T10:10:56;102595.81;;;19.45;100.00
74163;BME280;62515;52.758;5.076;2023-05-24T10:13:24;102598.00;;;19.73;100.00
74163;BME280;62515;52.758;5.076;2023-05-24T10:15:52;102597.75;;;20.81;100.00
74163;BME280;62515;52.758;5.076;2023-05-24T10:18:18;102607.22;;;22.25;100.00
74163;BME280;62515;52.758;5.076;2023-05-24T10:20:45;102600.81;;;22.07;100.00
74163;BME280;62515;52.758;5.076;2023-05-24T10:23:15;102603.56;;;21.67;100.00
74163;BME280;62515;52.758;5.076;2023-05-24T10:25:49;102602.31;;;21.71;100.00
74163;BME280;62515;52.758;5.076;2023-05-24T10:28:17;102610.72;;;22.93;87.82
74163;BME280;62515;52.758;5.076;2023-05-24T10:30:51;102585.38;;;22.46;100.00
74163;BME280;62515;52.758;5.076;2023-05-24T10:33:21;102604.34;;;21.39;100.00
74163;BME280;62515;52.758;5.076;2023-05-24T10:35:50;102607.38;;;21.46;100.00
74163;BME280;62515;52.758;5.076;2023-05-24T10:38:21;102594.72;;;20.95;100.00
74163;BME280;62515;52.758;5.076;2023-05-24T10:40:51;102615.94;;;19.52;100.00
74163;BME280;62515;52.758;5.076;2023-05-24T10:43:18;102609.25;;;20.21;100.00
74163;BME280;62515;52.758;5.076;2023-05-24T10:45:48;102615.28;;;21.77;100.00
74163;BME280;62515;52.758;5.076;2023-05-24T10:48:36;102606.94;;;22.48;100.00
74163;BME280;62515;52.758;5.076;2023-05-24T10:51:32;102614.09;;;22.29;99.78
74163;BME280;62515;52.758;5.076;2023-05-24T10:54:16;102615.38;;;22.35;89.06
74163;BME280;62515;52.758;5.076;2023-05-24T10:57:04;102616.13;;;21.59;100.00
74163;BME280;62515;52.758;5.076;2023-05-24T10:59:35;102609.66;;;19.73;100.00
74163;BME280;62515;52.758;5.076;2023-05-24T11:02:04;102615.19;;;19.61;100.00
74163;BME280;62515;52.758;5.076;2023-05-24T11:04:36;102600.59;;;19.41;100.00
74163;BME280;62515;52.758;5.076;2023-05-24T11:07:04;102613.19;;;20.28;100.00
74163;BME280;62515;52.758;5.076;2023-05-24T11:09:32;102613.72;;;19.34;100.00
74163;BME280;62515;52.758;5.076;2023-05-24T11:12:02;102604.63;;;19.36;100.00
74163;BME280;62515;52.758;5.076;2023-05-24T11:14:30;102598.00;;;18.84;100.00
74163;BME280;62515;52.758;5.076;2023-05-24T11:16:58;102603.28;;;17.92;100.00
74163;BME280;62515;52.758;5.076;2023-05-24T11:19:31;102614.56;;;18.91;100.00
74163;BME280;62515;52.758;5.076;2023-05-24T11:22:01;102592.28;;;19.87;100.00
74163;BME280;62515;52.758;5.076;2023-05-24T11:24:28;102603.38;;;18.38;100.00
74163;BME280;62515;52.758;5.076;2023-05-24T11:26:59;102609.44;;;19.65;100.00
74163;BME280;62515;52.758;5.076;2023-05-24T11:29:29;102606.06;;;20.16;100.00
74163;BME280;62515;52.758;5.076;2023-05-24T11:31:57;102595.44;;;20.03;100.00
74163;BME280;62515;52.758;5.076;2023-05-24T11:34:25;102600.28;;;20.31;100.00
74163;BME280;62515;52.758;5.076;2023-05-24T11:36:51;102603.72;;;20.54;100.00
74163;BME280;62515;52.758;5.076;2023-05-24T11:39:19;102603.50;;;20.14;100.00
74163;BME280;62515;52.758;5.076;2023-05-24T11:41:46;102600.94;;;21.47;99.09
74163;BME280;62515;52.758;5.076;2023-05-24T11:44:16;102595.03;;;19.76;100.00
74163;BME280;62515;52.758;5.076;2023-05-24T11:46:45;102603.25;;;20.70;100.00
74163;BME280;62515;52.758;5.076;2023-05-24T11:49:13;102576.81;;;19.89;100.00
74163;BME280;62515;52.758;5.076;2023-05-24T11:51:41;102590.25;;;20.11;100.00
74163;BME280;62515;52.758;5.076;2023-05-24T11:54:08;102588.59;;;20.72;100.00
74163;BME280;62515;52.758;5.076;2023-05-24T11:56:35;102590.31;;;21.04;100.00
74163;BME280;62515;52.758;5.076;2023-05-24T11:59:08;102602.13;;;21.23;100.00
74163;BME280;62515;52.758;5.076;2023-05-24T12:01:37;102597.31;;;20.23;100.00
74163;BME280;62515;52.758;5.076;2023-05-24T12:04:07;102597.91;;;19.08;100.00
74163;BME280;62515;52.758;5.076;2023-05-24T12:06:37;102609.22;;;18.56;100.00
74163;BME280;62515;52.758;5.076;2023-05-24T12:09:05;102595.41;;;19.71;100.00
74163;BME280;62515;52.758;5.076;2023-05-24T12:11:37;102607.53;;;20.31;100.00
74163;BME280;62515;52.758;5.076;2023-05-24T12:14:07;102600.16;;;20.54;100.00
74163;BME280;62515;52.758;5.076;2023-05-24T12:16:37;102594.06;;;20.82;100.00
74163;BME280;62515;52.758;5.076;2023-05-24T12:19:04;102603.22;;;21.11;100.00
74163;BME280;62515;52.758;5.076;2023-05-24T12:21:47;102589.75;;;21.30;100.00
74163;BME280;62515;52.758;5.076;2023-05-24T12:24:17;102600.47;;;20.81;100.00
74163;BME280;62515;52.758;5.076;2023-05-24T12:26:46;102599.41;;;19.99;100.00
74163;BME280;62515;52.758;5.076;2023-05-24T12:29:21;102605.25;;;18.49;100.00
74163;BME280;62515;52.758;5.076;2023-05-24T12:32:09;102608.06;;;18.93;100.00
74163;BME280;62515;52.758;5.076;2023-05-24T12:34:48;102598.53;;;19.45;100.00
74163;BME280;62515;52.758;5.076;2023-05-24T12:37:16;102607.47;;;19.01;100.00
74163;BME280;62515;52.758;5.076;2023-05-24T12:39:43;102574.91;;;18.58;100.00
74163;BME280;62515;52.758;5.076;2023-05-24T12:42:11;102600.72;;;19.40;100.00
74163;BME280;62515;52.758;5.076;2023-05-24T12:44:38;102602.47;;;20.38;100.00
74163;BME280;62515;52.758;5.076;2023-05-24T12:47:06;102594.00;;;19.99;100.00
74163;BME280;62515;52.758;5.076;2023-05-24T12:49:34;102618.84;;;19.71;100.00
74163;BME280;62515;52.758;5.076;2023-05-24T12:52:01;102603.66;;;19.70;100.00
74163;BME280;62515;52.758;5.076;2023-05-24T12:54:29;102604.22;;;20.16;100.00
74163;BME280;62515;52.758;5.076;2023-05-24T12:56:57;102612.53;;;19.50;100.00
74163;BME280;62515;52.758;5.076;2023-05-24T12:59:28;102609.81;;;18.24;100.00
74163;BME280;62515;52.758;5.076;2023-05-24T13:01:57;102616.44;;;17.60;100.00
74163;BME280;62515;52.758;5.076;2023-05-24T13:04:25;102606.28;;;17.02;100.00
74163;BME280;62515;52.758;5.076;2023-05-24T13:07:06;102608.69;;;17.92;100.00